sensor_id;sensor_type;location;lat;lon;timestamp;P1;durP1;ratioP1;P2;durP2;ratioP2
51174;SDS011;37240;50.104;20.010;2023-03-21T00:00:14;124.88;;;62.65;;
51174;SDS011;37240;50.104;20.010;2023-03-21T00:05:15;126.32;;;61.67;;
51174;SDS011;37240;50.104;20.010;2023-03-21T00:10:16;121.82;;;60.72;;
51174;SDS011;37240;50.104;20.010;2023-03-21T00:15:16;126.30;;;63.85;;
51174;SDS011;37240;50.104;20.010;2023-03-21T00:20:17;126.90;;;61.85;;
51174;SDS011;37240;50.104;20.010;2023-03-21T00:25:17;131.32;;;62.67;;
51174;SDS011;37240;50.104;20.010;2023-03-21T00:30:18;126.45;;;62.00;;
51174;SDS011;37240;50.104;20.010;2023-03-21T00:35:19;119.88;;;58.65;;
51174;SDS011;37240;50.104;20.010;2023-03-21T00:40:19;112.43;;;55.22;;
51174;SDS011;37240;50.104;20.010;2023-03-21T00:45:20;119.65;;;59.08;;
51174;SDS011;37240;50.104;20.010;2023-03-21T00:50:20;123.50;;;59.25;;
51174;SDS011;37240;50.104;20.010;2023-03-21T00:55:21;118.82;;;58.72;;
51174;SDS011;37240;50.104;20.010;2023-03-21T01:00:22;110.03;;;51.78;;
51174;SDS011;37240;50.104;20.010;2023-03-21T01:05:26;104.05;;;50.15;;
51174;SDS011;37240;50.104;20.010;2023-03-21T01:10:28;100.97;;;48.45;;
51174;SDS011;37240;50.104;20.010;2023-03-21T01:15:29;104.15;;;47.47;;
51174;SDS011;37240;50.104;20.010;2023-03-21T01:20:29;100.75;;;46.90;;
51174;SDS011;37240;50.104;20.010;2023-03-21T01:25:30;89.15;;;43.90;;
51174;SDS011;37240;50.104;20.010;2023-03-21T01:30:30;94.00;;;44.40;;
51174;SDS011;37240;50.104;20.010;2023-03-21T01:35:31;84.30;;;40.35;;
51174;SDS011;37240;50.104;20.010;2023-03-21T01:40:32;90.40;;;43.25;;
51174;SDS011;37240;50.104;20.010;2023-03-21T01:51:01;85.35;;;40.22;;
51174;SDS011;37240;50.104;20.010;2023-03-21T01:56:02;91.68;;;42.83;;
51174;SDS011;37240;50.104;20.010;2023-03-21T02:01:10;86.57;;;39.63;;
51174;SDS011;37240;50.104;20.010;2023-03-21T02:06:11;88.35;;;40.78;;
51174;SDS011;37240;50.104;20.010;2023-03-21T02:11:14;83.40;;;41.67;;
51174;SDS011;37240;50.104;20.010;2023-03-21T02:27:05;75.30;;;37.47;;
51174;SDS011;37240;50.104;20.010;2023-03-21T02:47:41;75.35;;;36.47;;
51174;SDS011;37240;50.104;20.010;2023-03-21T02:52:45;79.47;;;38.00;;
51174;SDS011;37240;50.104;20.010;2023-03-21T02:57:48;76.60;;;37.70;;
51174;SDS011;37240;50.104;20.010;2023-03-21T03:02:51;77.88;;;38.28;;
51174;SDS011;37240;50.104;20.010;2023-03-21T03:18:26;74.53;;;36.97;;
51174;SDS011;37240;50.104;20.010;2023-03-21T03:28:58;74.07;;;37.17;;
51174;SDS011;37240;50.104;20.010;2023-03-21T03:34:05;74.07;;;37.25;;
51174;SDS011;37240;50.104;20.010;2023-03-21T03:39:10;76.38;;;37.17;;
51174;SDS011;37240;50.104;20.010;2023-03-21T03:44:12;82.35;;;40.55;;
51174;SDS011;37240;50.104;20.010;2023-03-21T03:49:14;85.45;;;42.08;;
51174;SDS011;37240;50.104;20.010;2023-03-21T03:54:20;79.78;;;42.03;;
51174;SDS011;37240;50.104;20.010;2023-03-21T03:59:26;86.90;;;43.42;;
51174;SDS011;37240;50.104;20.010;2023-03-21T04:04:26;89.85;;;45.08;;
51174;SDS011;37240;50.104;20.010;2023-03-21T04:09:27;99.20;;;48.17;;
51174;SDS011;37240;50.104;20.010;2023-03-21T04:14:28;93.50;;;44.72;;
51174;SDS011;37240;50.104;20.010;2023-03-21T04:19:29;89.40;;;43.17;;
51174;SDS011;37240;50.104;20.010;2023-03-21T04:24:29;92.47;;;46.95;;
51174;SDS011;37240;50.104;20.010;2023-03-21T04:29:30;91.80;;;44.70;;
51174;SDS011;37240;50.104;20.010;2023-03-21T04:34:31;91.47;;;44.97;;
51174;SDS011;37240;50.104;20.010;2023-03-21T04:39:31;83.22;;;42.75;;
51174;SDS011;37240;50.104;20.010;2023-03-21T04:44:32;88.38;;;44.88;;
51174;SDS011;37240;50.104;20.010;2023-03-21T04:49:33;85.63;;;43.10;;
51174;SDS011;37240;50.104;20.010;2023-03-21T04:54:33;89.25;;;42.13;;
51174;SDS011;37240;50.104;20.010;2023-03-21T04:59:34;84.65;;;41.85;;
51174;SDS011;37240;50.104;20.010;2023-03-21T05:04:35;92.20;;;44.25;;
51174;SDS011;37240;50.104;20.010;2023-03-21T05:09:35;87.57;;;44.53;;
51174;SDS011;37240;50.104;20.010;2023-03-21T05:14:36;88.18;;;42.95;;
51174;SDS011;37240;50.104;20.010;2023-03-21T05:19:37;84.15;;;42.85;;
51174;SDS011;37240;50.104;20.010;2023-03-21T05:24:37;86.22;;;42.35;;
51174;SDS011;37240;50.104;20.010;2023-03-21T05:29:38;76.70;;;39.30;;
51174;SDS011;37240;50.104;20.010;2023-03-21T05:34:38;81.80;;;41.95;;
51174;SDS011;37240;50.104;20.010;2023-03-21T05:39:39;81.95;;;38.63;;
51174;SDS011;37240;50.104;20.010;2023-03-21T05:44:39;75.25;;;37.88;;
51174;SDS011;37240;50.104;20.010;2023-03-21T05:49:40;77.22;;;38.00;;
51174;SDS011;37240;50.104;20.010;2023-03-21T05:54:41;76.13;;;37.72;;
51174;SDS011;37240;50.104;20.010;2023-03-21T05:59:41;81.13;;;38.55;;
51174;SDS011;37240;50.104;20.010;2023-03-21T06:04:42;83.05;;;38.95;;
51174;SDS011;37240;50.104;20.010;2023-03-21T06:09:42;84.80;;;41.83;;
51174;SDS011;37240;50.104;20.010;2023-03-21T06:14:43;86.55;;;41.05;;
51174;SDS011;37240;50.104;20.010;2023-03-21T06:19:44;79.30;;;37.35;;
51174;SDS011;37240;50.104;20.010;2023-03-21T06:24:44;72.53;;;35.47;;
51174;SDS011;37240;50.104;20.010;2023-03-21T06:29:45;66.22;;;34.78;;
51174;SDS011;37240;50.104;20.010;2023-03-21T06:34:45;72.63;;;35.03;;
51174;SDS011;37240;50.104;20.010;2023-03-21T06:39:46;71.30;;;33.85;;
51174;SDS011;37240;50.104;20.010;2023-03-21T06:44:46;70.28;;;34.33;;
51174;SDS011;37240;50.104;20.010;2023-03-21T06:49:47;75.88;;;34.72;;
51174;SDS011;37240;50.104;20.010;2023-03-21T06:54:47;63.95;;;32.33;;
51174;SDS011;37240;50.104;20.010;2023-03-21T06:59:48;66.47;;;31.00;;
51174;SDS011;37240;50.104;20.010;2023-03-21T07:04:48;53.53;;;27.05;;
51174;SDS011;37240;50.104;20.010;2023-03-21T07:09:49;53.50;;;26.33;;
51174;SDS011;37240;50.104;20.010;2023-03-21T07:14:50;50.92;;;25.45;;
51174;SDS011;37240;50.104;20.010;2023-03-21T07:19:50;42.53;;;22.10;;
51174;SDS011;37240;50.104;20.010;2023-03-21T07:24:51;33.88;;;19.30;;
51174;SDS011;37240;50.104;20.010;2023-03-21T07:29:52;34.17;;;17.92;;
51174;SDS011;37240;50.104;20.010;2023-03-21T07:34:52;32.83;;;18.30;;
51174;SDS011;37240;50.104;20.010;2023-03-21T07:39:53;38.28;;;18.92;;
51174;SDS011;37240;50.104;20.010;2023-03-21T07:44:54;38.17;;;19.40;;
51174;SDS011;37240;50.104;20.010;2023-03-21T07:49:54;33.83;;;19.27;;
51174;SDS011;37240;50.104;20.010;2023-03-21T07:54:55;35.60;;;19.27;;
51174;SDS011;37240;50.104;20.010;2023-03-21T07:59:56;34.15;;;18.83;;
51174;SDS011;37240;50.104;20.010;2023-03-21T08:04:56;31.80;;;17.42;;
51174;SDS011;37240;50.104;20.010;2023-03-21T08:09:57;38.15;;;17.90;;
51174;SDS011;37240;50.104;20.010;2023-03-21T08:14:57;28.65;;;15.15;;
51174;SDS011;37240;50.104;20.010;2023-03-21T08:19:58;31.55;;;14.80;;
51174;SDS011;37240;50.104;20.010;2023-03-21T08:24:58;32.92;;;18.13;;
51174;SDS011;37240;50.104;20.010;2023-03-21T08:29:59;30.73;;;17.38;;
51174;SDS011;37240;50.104;20.010;2023-03-21T08:35:00;31.05;;;17.75;;
51174;SDS011;37240;50.104;20.010;2023-03-21T08:40:02;39.33;;;19.83;;
51174;SDS011;37240;50.104;20.010;2023-03-21T08:45:08;34.13;;;18.00;;
51174;SDS011;37240;50.104;20.010;2023-03-21T08:50:11;25.55;;;14.38;;
51174;SDS011;37240;50.104;20.010;2023-03-21T08:55:14;29.63;;;14.00;;
51174;SDS011;37240;50.104;20.010;2023-03-21T09:00:15;34.22;;;17.98;;
51174;SDS011;37240;50.104;20.010;2023-03-21T09:05:17;33.45;;;18.50;;
51174;SDS011;37240;50.104;20.010;2023-03-21T09:10:19;33.47;;;19.13;;
51174;SDS011;37240;50.104;20.010;2023-03-21T09:15:22;37.40;;;20.45;;
51174;SDS011;37240;50.104;20.010;2023-03-21T09:20:25;37.45;;;20.67;;
51174;SDS011;37240;50.104;20.010;2023-03-21T09:25:26;40.13;;;20.40;;
51174;SDS011;37240;50.104;20.010;2023-03-21T09:30:28;47.90;;;23.10;;
51174;SDS011;37240;50.104;20.010;2023-03-21T09:35:28;41.50;;;21.55;;
51174;SDS011;37240;50.104;20.010;2023-03-21T09:45:57;47.53;;;23.25;;
51174;SDS011;37240;50.104;20.010;2023-03-21T09:51:20;33.97;;;17.85;;
51174;SDS011;37240;50.104;20.010;2023-03-21T09:56:21;32.03;;;19.00;;
51174;SDS011;37240;50.104;20.010;2023-03-21T10:01:27;32.58;;;17.88;;
51174;SDS011;37240;50.104;20.010;2023-03-21T10:11:31;33.42;;;17.15;;
51174;SDS011;37240;50.104;20.010;2023-03-21T10:16:41;29.60;;;15.77;;
51174;SDS011;37240;50.104;20.010;2023-03-21T10:21:47;26.65;;;15.30;;
51174;SDS011;37240;50.104;20.010;2023-03-21T10:26:49;29.37;;;15.67;;
51174;SDS011;37240;50.104;20.010;2023-03-21T10:31:51;32.03;;;15.75;;
51174;SDS011;37240;50.104;20.010;2023-03-21T10:36:53;34.45;;;16.55;;
51174;SDS011;37240;50.104;20.010;2023-03-21T10:41:53;31.75;;;15.70;;
51174;SDS011;37240;50.104;20.010;2023-03-21T10:47:14;32.88;;;17.17;;
51174;SDS011;37240;50.104;20.010;2023-03-21T10:52:20;29.23;;;16.05;;
51174;SDS011;37240;50.104;20.010;2023-03-21T10:57:22;29.77;;;16.00;;
51174;SDS011;37240;50.104;20.010;2023-03-21T11:02:29;30.40;;;17.13;;
51174;SDS011;37240;50.104;20.010;2023-03-21T11:07:34;36.03;;;18.75;;
51174;SDS011;37240;50.104;20.010;2023-03-21T11:12:36;30.63;;;16.08;;
51174;SDS011;37240;50.104;20.010;2023-03-21T11:17:38;34.35;;;18.30;;
51174;SDS011;37240;50.104;20.010;2023-03-21T11:22:41;39.03;;;18.25;;
51174;SDS011;37240;50.104;20.010;2023-03-21T11:27:46;33.03;;;18.30;;
51174;SDS011;37240;50.104;20.010;2023-03-21T11:32:55;33.10;;;18.08;;
51174;SDS011;37240;50.104;20.010;2023-03-21T11:37:57;31.85;;;17.63;;
51174;SDS011;37240;50.104;20.010;2023-03-21T11:48:17;43.90;;;23.70;;
51174;SDS011;37240;50.104;20.010;2023-03-21T12:09:15;48.42;;;26.15;;
51174;SDS011;37240;50.104;20.010;2023-03-21T12:14:23;53.88;;;28.20;;
51174;SDS011;37240;50.104;20.010;2023-03-21T12:19:45;57.47;;;28.25;;
51174;SDS011;37240;50.104;20.010;2023-03-21T12:24:55;48.78;;;27.10;;
51174;SDS011;37240;50.104;20.010;2023-03-21T12:46:14;45.25;;;24.05;;
51174;SDS011;37240;50.104;20.010;2023-03-21T12:51:34;38.30;;;22.10;;
51174;SDS011;37240;50.104;20.010;2023-03-21T13:01:52;42.50;;;22.27;;
51174;SDS011;37240;50.104;20.010;2023-03-21T13:06:58;43.63;;;22.15;;
51174;SDS011;37240;50.104;20.010;2023-03-21T13:17:28;38.47;;;20.95;;
51174;SDS011;37240;50.104;20.010;2023-03-21T13:22:36;41.78;;;21.40;;
51174;SDS011;37240;50.104;20.010;2023-03-21T13:27:36;41.28;;;22.45;;
51174;SDS011;37240;50.104;20.010;2023-03-21T13:32:38;42.92;;;20.23;;
51174;SDS011;37240;50.104;20.010;2023-03-21T13:37:55;40.35;;;18.92;;
51174;SDS011;37240;50.104;20.010;2023-03-21T13:53:58;35.10;;;17.05;;
51174;SDS011;37240;50.104;20.010;2023-03-21T13:59:00;39.50;;;19.50;;
51174;SDS011;37240;50.104;20.010;2023-03-21T14:09:29;51.47;;;22.23;;
51174;SDS011;37240;50.104;20.010;2023-03-21T14:14:45;39.53;;;21.35;;
51174;SDS011;37240;50.104;20.010;2023-03-21T14:24:54;38.25;;;19.65;;
51174;SDS011;37240;50.104;20.010;2023-03-21T14:29:56;49.15;;;19.58;;
51174;SDS011;37240;50.104;20.010;2023-03-21T14:34:58;33.20;;;16.58;;
51174;SDS011;37240;50.104;20.010;2023-03-21T14:40:01;36.35;;;17.17;;
51174;SDS011;37240;50.104;20.010;2023-03-21T14:45:10;38.83;;;17.77;;
51174;SDS011;37240;50.104;20.010;2023-03-21T15:01:00;27.83;;;14.63;;
51174;SDS011;37240;50.104;20.010;2023-03-21T15:06:02;33.93;;;14.13;;
51174;SDS011;37240;50.104;20.010;2023-03-21T15:11:04;28.70;;;15.23;;
51174;SDS011;37240;50.104;20.010;2023-03-21T15:16:07;23.00;;;13.15;;
51174;SDS011;37240;50.104;20.010;2023-03-21T15:21:10;30.85;;;15.77;;
51174;SDS011;37240;50.104;20.010;2023-03-21T15:26:20;33.58;;;17.85;;
51174;SDS011;37240;50.104;20.010;2023-03-21T15:31:25;30.13;;;15.57;;
51174;SDS011;37240;50.104;20.010;2023-03-21T15:36:33;34.08;;;16.70;;
51174;SDS011;37240;50.104;20.010;2023-03-21T15:46:45;31.45;;;15.43;;
51174;SDS011;37240;50.104;20.010;2023-03-21T15:51:49;30.35;;;15.38;;
51174;SDS011;37240;50.104;20.010;2023-03-21T15:56:53;29.30;;;15.77;;
51174;SDS011;37240;50.104;20.010;2023-03-21T16:01:58;31.58;;;16.23;;
51174;SDS011;37240;50.104;20.010;2023-03-21T16:07:00;28.65;;;16.25;;
51174;SDS011;37240;50.104;20.010;2023-03-21T16:12:07;30.90;;;15.27;;
51174;SDS011;37240;50.104;20.010;2023-03-21T16:17:30;29.15;;;14.95;;
51174;SDS011;37240;50.104;20.010;2023-03-21T16:22:32;22.83;;;13.05;;
51174;SDS011;37240;50.104;20.010;2023-03-21T16:27:33;35.47;;;16.45;;
51174;SDS011;37240;50.104;20.010;2023-03-21T16:32:33;38.97;;;19.50;;
51174;SDS011;37240;50.104;20.010;2023-03-21T16:37:34;33.58;;;16.17;;
51174;SDS011;37240;50.104;20.010;2023-03-21T16:42:34;25.35;;;15.20;;
51174;SDS011;37240;50.104;20.010;2023-03-21T16:47:35;27.33;;;15.90;;
51174;SDS011;37240;50.104;20.010;2023-03-21T16:52:35;32.08;;;16.85;;
51174;SDS011;37240;50.104;20.010;2023-03-21T16:57:36;34.33;;;17.15;;
51174;SDS011;37240;50.104;20.010;2023-03-21T17:02:36;33.20;;;16.15;;
51174;SDS011;37240;50.104;20.010;2023-03-21T17:07:37;30.65;;;15.88;;
51174;SDS011;37240;50.104;20.010;2023-03-21T17:12:38;31.55;;;17.13;;
51174;SDS011;37240;50.104;20.010;2023-03-21T17:17:38;34.00;;;17.35;;
51174;SDS011;37240;50.104;20.010;2023-03-21T17:22:39;36.88;;;19.63;;
51174;SDS011;37240;50.104;20.010;2023-03-21T17:27:39;56.65;;;28.23;;
51174;SDS011;37240;50.104;20.010;2023-03-21T17:32:40;69.10;;;35.08;;
51174;SDS011;37240;50.104;20.010;2023-03-21T17:37:41;50.90;;;22.95;;
51174;SDS011;37240;50.104;20.010;2023-03-21T17:42:42;35.70;;;18.58;;
51174;SDS011;37240;50.104;20.010;2023-03-21T17:47:43;35.20;;;18.15;;
51174;SDS011;37240;50.104;20.010;2023-03-21T17:52:44;34.35;;;19.10;;
51174;SDS011;37240;50.104;20.010;2023-03-21T17:57:46;31.67;;;18.63;;
51174;SDS011;37240;50.104;20.010;2023-03-21T18:02:48;36.78;;;18.88;;
51174;SDS011;37240;50.104;20.010;2023-03-21T18:07:49;43.17;;;20.45;;
51174;SDS011;37240;50.104;20.010;2023-03-21T18:12:53;40.83;;;20.80;;
51174;SDS011;37240;50.104;20.010;2023-03-21T18:17:53;38.15;;;20.08;;
51174;SDS011;37240;50.104;20.010;2023-03-21T18:22:54;37.30;;;18.85;;
51174;SDS011;37240;50.104;20.010;2023-03-21T18:27:54;33.17;;;18.13;;
51174;SDS011;37240;50.104;20.010;2023-03-21T18:32:55;46.83;;;21.42;;
51174;SDS011;37240;50.104;20.010;2023-03-21T18:37:55;34.20;;;18.25;;
51174;SDS011;37240;50.104;20.010;2023-03-21T18:42:56;34.55;;;17.98;;
51174;SDS011;37240;50.104;20.010;2023-03-21T18:47:57;35.47;;;18.08;;
51174;SDS011;37240;50.104;20.010;2023-03-21T18:52:57;34.75;;;17.92;;
51174;SDS011;37240;50.104;20.010;2023-03-21T18:57:58;38.40;;;19.88;;
51174;SDS011;37240;50.104;20.010;2023-03-21T19:02:58;34.92;;;19.48;;
51174;SDS011;37240;50.104;20.010;2023-03-21T19:07:59;40.70;;;20.80;;
51174;SDS011;37240;50.104;20.010;2023-03-21T19:12:59;44.38;;;22.10;;
51174;SDS011;37240;50.104;20.010;2023-03-21T19:18:00;41.78;;;22.38;;
51174;SDS011;37240;50.104;20.010;2023-03-21T19:23:00;40.28;;;20.77;;
51174;SDS011;37240;50.104;20.010;2023-03-21T19:28:01;46.75;;;22.98;;
51174;SDS011;37240;50.104;20.010;2023-03-21T19:33:01;48.22;;;23.52;;
51174;SDS011;37240;50.104;20.010;2023-03-21T19:38:02;46.13;;;23.48;;
51174;SDS011;37240;50.104;20.010;2023-03-21T19:43:03;55.45;;;24.30;;
51174;SDS011;37240;50.104;20.010;2023-03-21T19:48:03;47.90;;;24.35;;
51174;SDS011;37240;50.104;20.010;2023-03-21T19:53:04;53.17;;;24.50;;
51174;SDS011;37240;50.104;20.010;2023-03-21T19:58:04;51.05;;;25.77;;
51174;SDS011;37240;50.104;20.010;2023-03-21T20:03:05;54.10;;;24.10;;
51174;SDS011;37240;50.104;20.010;2023-03-21T20:08:06;63.38;;;24.33;;
51174;SDS011;37240;50.104;20.010;2023-03-21T20:13:07;50.22;;;24.23;;
51174;SDS011;37240;50.104;20.010;2023-03-21T20:18:07;51.72;;;26.17;;
51174;SDS011;37240;50.104;20.010;2023-03-21T20:23:08;64.28;;;29.63;;
51174;SDS011;37240;50.104;20.010;2023-03-21T20:28:09;61.30;;;28.65;;
51174;SDS011;37240;50.104;20.010;2023-03-21T20:33:09;61.00;;;27.80;;
51174;SDS011;37240;50.104;20.010;2023-03-21T20:38:10;72.65;;;33.08;;
51174;SDS011;37240;50.104;20.010;2023-03-21T20:43:10;81.90;;;33.65;;
51174;SDS011;37240;50.104;20.010;2023-03-21T20:48:11;71.65;;;34.08;;
51174;SDS011;37240;50.104;20.010;2023-03-21T20:53:11;70.82;;;33.35;;
51174;SDS011;37240;50.104;20.010;2023-03-21T20:58:12;74.60;;;34.83;;
51174;SDS011;37240;50.104;20.010;2023-03-21T21:03:13;78.10;;;36.88;;
51174;SDS011;37240;50.104;20.010;2023-03-21T21:08:13;81.10;;;36.13;;
51174;SDS011;37240;50.104;20.010;2023-03-21T21:13:17;65.88;;;33.70;;
51174;SDS011;37240;50.104;20.010;2023-03-21T21:18:17;78.72;;;34.15;;
51174;SDS011;37240;50.104;20.010;2023-03-21T21:23:18;85.65;;;39.58;;
51174;SDS011;37240;50.104;20.010;2023-03-21T21:28:19;86.28;;;39.50;;
51174;SDS011;37240;50.104;20.010;2023-03-21T21:33:21;79.00;;;36.88;;
51174;SDS011;37240;50.104;20.010;2023-03-21T21:38:21;91.40;;;40.70;;
51174;SDS011;37240;50.104;20.010;2023-03-21T21:43:22;93.28;;;41.40;;
51174;SDS011;37240;50.104;20.010;2023-03-21T21:48:23;92.55;;;41.10;;
51174;SDS011;37240;50.104;20.010;2023-03-21T21:53:23;91.13;;;39.88;;
51174;SDS011;37240;50.104;20.010;2023-03-21T21:58:24;89.30;;;42.97;;
51174;SDS011;37240;50.104;20.010;2023-03-21T22:03:24;89.18;;;43.72;;
51174;SDS011;37240;50.104;20.010;2023-03-21T22:08:25;105.35;;;50.00;;
51174;SDS011;37240;50.104;20.010;2023-03-21T22:13:26;100.90;;;48.33;;
51174;SDS011;37240;50.104;20.010;2023-03-21T22:18:27;106.65;;;48.03;;
51174;SDS011;37240;50.104;20.010;2023-03-21T22:23:27;107.80;;;47.92;;
51174;SDS011;37240;50.104;20.010;2023-03-21T22:28:28;97.95;;;46.78;;
51174;SDS011;37240;50.104;20.010;2023-03-21T22:33:29;105.78;;;49.97;;
51174;SDS011;37240;50.104;20.010;2023-03-21T22:38:30;100.13;;;46.75;;
51174;SDS011;37240;50.104;20.010;2023-03-21T22:43:30;102.57;;;47.00;;
51174;SDS011;37240;50.104;20.010;2023-03-21T22:48:31;93.18;;;45.50;;
51174;SDS011;37240;50.104;20.010;2023-03-21T22:53:32;97.13;;;46.15;;
51174;SDS011;37240;50.104;20.010;2023-03-21T22:58:32;93.63;;;47.10;;
51174;SDS011;37240;50.104;20.010;2023-03-21T23:03:33;103.43;;;50.30;;
51174;SDS011;37240;50.104;20.010;2023-03-21T23:08:33;113.07;;;50.50;;
51174;SDS011;37240;50.104;20.010;2023-03-21T23:13:34;109.40;;;52.28;;
51174;SDS011;37240;50.104;20.010;2023-03-21T23:18:34;113.63;;;54.30;;
51174;SDS011;37240;50.104;20.010;2023-03-21T23:23:35;106.20;;;52.63;;
51174;SDS011;37240;50.104;20.010;2023-03-21T23:28:36;126.40;;;58.78;;
51174;SDS011;37240;50.104;20.010;2023-03-21T23:33:37;114.07;;;54.90;;
51174;SDS011;37240;50.104;20.010;2023-03-21T23:38:38;105.45;;;52.75;;
51174;SDS011;37240;50.104;20.010;2023-03-21T23:43:38;114.95;;;55.33;;
51174;SDS011;37240;50.104;20.010;2023-03-21T23:48:39;123.15;;;57.95;;
51174;SDS011;37240;50.104;20.010;2023-03-21T23:53:41;120.35;;;57.75;;
51174;SDS011;37240;50.104;20.010;2023-03-21T23:58:42;126.60;;;57.17;;
